Time;durP1;ratioP1;P1;durP2;ratioP2;P2;SDS_P1;SDS_P2;PMS_P1;PMS_P2;Temp;Humidity;BMP_temperature;BMP_pressure;BME280_temperature;BME280_humidity;BME280_pressure;Samples;Min_cycle;Max_cycle;Signal;HPM_P1;HPM_P2
2023/08/20 00:02:24;;;;;;;10.73;9.87;;;;;;;23.88;76.24;98261.03;5089789;28;20539;-74
2023/08/20 00:04:51;;;;;;;11.17;10.37;;;;;;;23.79;76.25;98269.06;5092741;28;20520;-74
2023/08/20 00:07:18;;;;;;;12.10;11.10;;;;;;;23.80;76.30;98258.84;5092563;28;21008;-75
2023/08/20 00:09:46;;;;;;;11.60;10.53;;;;;;;23.74;76.64;98263.56;5092389;28;21004;-74
2023/08/20 00:12:13;;;;;;;10.83;10.13;;;;;;;23.75;76.79;98278.19;5092243;28;20925;-74
2023/08/20 00:14:54;;;;;;;10.20;9.40;;;;;;;23.81;76.27;98277.09;5092442;28;20461;-75
2023/08/20 00:17:21;;;;;;;11.07;10.13;;;;;;;23.74;76.90;98277.38;5092662;28;20485;-74
2023/08/20 00:19:48;;;;;;;10.33;9.57;;;;;;;23.81;76.54;98270.72;5092464;28;20463;-74
2023/08/20 00:22:17;;;;;;;10.60;9.90;;;;;;;23.87;76.72;98270.44;5074707;28;20454;-74
2023/08/20 00:24:44;;;;;;;11.47;10.77;;;;;;;23.86;76.35;98266.00;5091945;28;20543;-75
2023/08/20 00:27:13;;;;;;;11.30;10.40;;;;;;;23.77;77.03;98276.00;5092681;28;20462;-74
2023/08/20 00:29:39;;;;;;;10.97;10.27;;;;;;;23.77;77.14;98273.22;5092442;28;20465;-75
2023/08/20 00:32:07;;;;;;;11.40;10.37;;;;;;;23.81;76.90;98279.03;5092451;28;20471;-74
2023/08/20 00:34:34;;;;;;;10.57;9.87;;;;;;;23.77;77.24;98281.50;5092069;28;20465;-74
2023/08/20 00:37:02;;;;;;;11.47;10.67;;;;;;;23.92;76.41;98277.88;5092522;28;20475;-74
2023/08/20 00:39:28;;;;;;;10.10;9.50;;;;;;;23.84;76.64;98282.06;5092272;28;20467;-75
2023/08/20 00:41:55;;;;;;;11.63;10.83;;;;;;;23.87;77.02;98287.00;5092548;28;20545;-74
2023/08/20 00:44:23;;;;;;;11.53;10.50;;;;;;;23.80;76.90;98283.72;5092077;28;20468;-75
2023/08/20 00:46:51;;;;;;;11.30;10.60;;;;;;;23.90;76.65;98283.69;5091566;28;20444;-74
2023/08/20 00:49:18;;;;;;;12.10;11.10;;;;;;;23.78;77.10;98281.22;5092125;28;20591;-74
2023/08/20 00:51:46;;;;;;;12.20;11.20;;;;;;;23.80;76.82;98278.19;5091701;28;21554;-74
2023/08/20 00:54:12;;;;;;;10.70;9.90;;;;;;;23.66;77.69;98280.75;5091920;28;20442;-75
2023/08/20 00:56:39;;;;;;;10.87;10.17;;;;;;;23.73;77.50;98291.47;5092099;28;20532;-75
2023/08/20 00:59:06;;;;;;;10.90;9.83;;;;;;;23.78;77.17;98283.16;5091849;28;20470;-74
2023/08/20 01:01:35;;;;;;;11.23;10.43;;;;;;;23.77;77.03;98281.50;5091517;28;20467;-74
2023/08/20 01:04:02;;;;;;;10.63;9.83;;;;;;;23.69;77.53;98276.59;5091361;28;20438;-74
2023/08/20 01:06:34;;;;;;;11.17;10.27;;;;;;;23.67;77.86;98276.03;5091990;28;20438;-75
2023/08/20 01:09:05;;;;;;;12.60;11.53;;;;;;;23.74;77.75;98276.53;5091832;28;20470;-74
2023/08/20 01:11:35;;;;;;;11.50;10.60;;;;;;;23.69;77.77;98279.34;5091875;28;20437;-74
2023/08/20 01:14:01;;;;;;;11.97;11.13;;;;;;;23.66;77.96;98282.69;5089901;28;20454;-74
2023/08/20 01:16:28;;;;;;;11.63;10.73;;;;;;;23.52;78.55;98284.31;5091571;28;20445;-74
2023/08/20 01:18:57;;;;;;;12.67;11.80;;;;;;;23.62;78.40;98284.34;5091241;28;20581;-75
2023/08/20 01:21:31;;;;;;;10.83;10.03;;;;;;;23.60;78.15;98286.56;5091468;28;20783;-74
2023/08/20 01:24:07;;;;;;;10.83;10.13;;;;;;;23.51;78.85;98293.72;5091182;28;20451;-74
2023/08/20 01:26:50;;;;;;;11.70;10.80;;;;;;;23.49;78.91;98290.41;5091215;28;20449;-74
2023/08/20 01:29:19;;;;;;;12.20;11.20;;;;;;;23.60;78.29;98286.56;5091164;28;20469;-74
2023/08/20 01:31:46;;;;;;;12.40;11.40;;;;;;;23.50;78.80;98287.38;5091474;28;20480;-74
2023/08/20 01:34:13;;;;;;;12.43;11.30;;;;;;;23.42;79.06;98287.94;5090931;28;20491;-74
2023/08/20 01:36:40;;;;;;;12.10;11.10;;;;;;;23.41;79.13;98278.00;5091054;28;20940;-74
2023/08/20 01:39:07;;;;;;;11.87;11.07;;;;;;;23.52;78.72;98287.09;5091148;28;20550;-75
2023/08/20 01:41:33;;;;;;;11.70;10.63;;;;;;;23.49;78.83;98291.25;5090966;28;20438;-74
2023/08/20 01:44:01;;;;;;;12.17;11.33;;;;;;;23.51;78.42;98290.97;5090692;28;20473;-74
2023/08/20 01:46:29;;;;;;;11.67;10.83;;;;;;;23.35;79.48;98293.78;5090877;28;21025;-75
2023/08/20 01:48:56;;;;;;;12.03;11.13;;;;;;;23.38;79.03;98289.63;5090504;28;20522;-74
2023/08/20 01:51:22;;;;;;;12.27;11.27;;;;;;;23.18;79.79;98298.75;5090859;28;20491;-74
2023/08/20 01:53:49;;;;;;;13.30;12.23;;;;;;;23.09;79.89;98292.94;5090301;28;20982;-74
2023/08/20 01:56:16;;;;;;;13.30;12.30;;;;;;;23.16;79.47;98302.88;5090284;28;20478;-74
2023/08/20 01:58:43;;;;;;;13.30;12.30;;;;;;;22.99;80.03;98292.97;5090559;28;20485;-74
2023/08/20 02:01:10;;;;;;;12.27;11.43;;;;;;;23.05;79.85;98307.59;5090556;28;20439;-74
2023/08/20 02:03:38;;;;;;;12.40;11.50;;;;;;;22.91;80.29;98303.72;5090376;28;20851;-74
2023/08/20 02:06:05;;;;;;;12.57;11.63;;;;;;;22.81;80.43;98299.00;5090749;28;20542;-74
2023/08/20 02:08:32;;;;;;;12.30;11.50;;;;;;;22.69;81.60;98301.19;5090643;28;20451;-74
2023/08/20 02:11:02;;;;;;;13.47;12.60;;;;;;;22.89;80.54;98298.47;5090011;28;20450;-74
2023/08/20 02:13:29;;;;;;;13.57;12.57;;;;;;;22.93;80.79;98304.28;5090223;28;20464;-74
2023/08/20 02:16:00;;;;;;;14.10;13.10;;;;;;;22.90;80.46;98293.78;5090576;28;20437;-74
2023/08/20 02:18:27;;;;;;;14.20;13.20;;;;;;;22.80;80.63;98289.06;5090205;28;20542;-74
2023/08/20 02:20:55;;;;;;;13.60;12.70;;;;;;;22.63;81.70;98294.84;5088999;28;20505;-74
2023/08/20 02:23:22;;;;;;;13.00;12.10;;;;;;;22.76;81.06;98291.53;5089453;28;20450;-74
2023/08/20 02:25:49;;;;;;;14.10;13.00;;;;;;;22.68;81.59;98297.63;5090145;28;20464;-74
2023/08/20 02:28:16;;;;;;;15.03;14.10;;;;;;;22.68;81.56;98297.63;5090117;28;20446;-75
2023/08/20 02:30:44;;;;;;;16.27;15.17;;;;;;;22.79;81.38;98299.28;5090482;28;20465;-75
2023/08/20 02:33:11;;;;;;;14.90;13.90;;;;;;;22.68;81.18;98296.78;5090185;28;20496;-74
2023/08/20 02:35:38;;;;;;;14.97;13.97;;;;;;;22.61;81.85;98301.72;5089591;28;20563;-74
2023/08/20 02:38:06;;;;;;;13.93;12.93;;;;;;;22.63;81.57;98294.84;5090229;28;20481;-74
2023/08/20 02:40:33;;;;;;;14.63;13.67;;;;;;;22.62;81.83;98298.69;5089972;28;20493;-74
2023/08/20 02:43:00;;;;;;;15.47;14.20;;;;;;;22.74;81.13;98301.22;5090074;28;20492;-74
2023/08/20 02:45:27;;;;;;;16.67;15.47;;;;;;;22.82;80.82;98302.59;5089649;28;20445;-74
2023/08/20 02:47:53;;;;;;;18.47;17.17;;;;;;;22.62;81.20;98304.22;5089994;28;20990;-74
2023/08/20 02:50:20;;;;;;;18.67;17.27;;;;;;;22.43;82.29;98305.81;5089744;28;20473;-74
2023/08/20 02:52:47;;;;;;;20.43;18.90;;;;;;;22.26;83.78;98306.06;5089952;28;20515;-74
2023/08/20 02:55:15;;;;;;;19.87;18.47;;;;;;;22.34;83.07;98310.22;5089364;28;20529;-75
2023/08/20 02:57:42;;;;;;;17.70;16.40;;;;;;;22.15;84.00;98298.03;5089969;28;20575;-75
2023/08/20 03:00:13;;;;;;;20.87;19.27;;;;;;;22.17;84.17;98295.81;5089730;28;20493;-75
2023/08/20 03:02:41;;;;;;;22.77;20.90;;;;;;;22.06;84.32;98283.94;5089641;28;20440;-74
2023/08/20 03:05:08;;;;;;;22.63;21.03;;;;;;;21.77;85.90;98281.56;5089407;28;20912;-74
2023/08/20 03:07:35;;;;;;;22.30;20.57;;;;;;;21.74;86.31;98284.06;5089817;28;20953;-75
2023/08/20 03:10:02;;;;;;;22.27;20.70;;;;;;;21.71;86.95;98282.66;5089840;28;20746;-74
2023/08/20 03:12:30;;;;;;;22.03;20.40;;;;;;;21.63;87.02;98290.59;5089777;28;20488;-74
2023/08/20 03:14:57;;;;;;;22.17;20.37;;;;;;;21.69;87.11;98295.06;5088694;28;20818;-74
2023/08/20 03:17:24;;;;;;;19.60;18.20;;;;;;;21.59;87.26;98289.47;5089971;28;20446;-75
2023/08/20 03:19:58;;;;;;;21.23;19.73;;;;;;;21.49;87.66;98287.47;5089574;28;20871;-74
2023/08/20 03:22:25;;;;;;;18.33;17.03;;;;;;;21.51;87.73;98292.72;5089925;28;20456;-74
2023/08/20 03:24:53;;;;;;;19.00;17.60;;;;;;;21.42;88.29;98296.00;5089691;28;20556;-74
2023/08/20 03:27:20;;;;;;;19.00;17.70;;;;;;;21.44;87.57;98299.28;5089621;28;20456;-74
2023/08/20 03:29:48;;;;;;;18.20;16.90;;;;;;;21.65;87.45;98300.25;5089151;28;20457;-74
2023/08/20 03:32:16;;;;;;;17.77;16.47;;;;;;;21.76;86.96;98302.00;5089246;28;20978;-74
2023/08/20 03:34:42;;;;;;;21.77;20.10;;;;;;;21.68;87.09;98296.97;5089181;28;20458;-74
2023/08/20 03:37:09;;;;;;;20.70;19.30;;;;;;;21.77;86.74;98291.75;5089576;28;20494;-74
2023/08/20 03:39:36;;;;;;;21.07;19.57;;;;;;;21.86;86.24;98279.13;5093270;28;20572;-74
2023/08/20 03:42:03;;;;;;;18.87;17.47;;;;;;;21.90;86.52;98288.53;5093265;28;20480;-74
2023/08/20 03:44:30;;;;;;;19.63;18.13;;;;;;;21.93;86.08;98281.66;5093065;28;20464;-75
2023/08/20 03:46:58;;;;;;;19.50;18.10;;;;;;;21.83;85.98;98285.19;5092792;28;21031;-74
2023/08/20 03:49:25;;;;;;;20.57;19.07;;;;;;;21.57;87.56;98286.16;5093029;28;20545;-74
2023/08/20 03:51:51;;;;;;;19.17;17.57;;;;;;;21.64;87.39;98292.25;5093296;28;20448;-74
2023/08/20 03:54:18;;;;;;;19.13;17.73;;;;;;;21.67;87.11;98291.72;5093010;28;20519;-74
2023/08/20 03:56:45;;;;;;;22.10;20.37;;;;;;;21.52;87.34;98294.38;5093006;28;20449;-74
2023/08/20 03:59:12;;;;;;;20.77;19.10;;;;;;;21.42;88.35;98292.41;5092596;28;20576;-75
2023/08/20 04:01:39;;;;;;;19.60;18.20;;;;;;;21.24;89.06;98299.16;5093273;28;20923;-74
2023/08/20 04:04:07;;;;;;;19.07;17.67;;;;;;;21.19;89.58;98296.34;5092870;28;20453;-74
2023/08/20 04:06:34;;;;;;;20.07;18.57;;;;;;;21.28;89.21;98307.72;5074701;28;20974;-74
2023/08/20 04:09:00;;;;;;;20.77;19.27;;;;;;;21.29;89.18;98309.41;5092343;28;20549;-74
2023/08/20 04:11:27;;;;;;;19.43;17.90;;;;;;;21.43;88.95;98314.19;5092750;28;20853;-74
2023/08/20 04:13:54;;;;;;;19.77;18.43;;;;;;;21.48;88.51;98305.09;5092250;28;20460;-74
2023/08/20 04:16:21;;;;;;;21.03;19.53;;;;;;;21.48;88.59;98307.84;5093013;28;20540;-74
2023/08/20 04:18:48;;;;;;;21.87;20.23;;;;;;;21.36;88.94;98308.09;5092760;28;20498;-74
2023/08/20 04:21:16;;;;;;;19.23;17.73;;;;;;;21.29;89.53;98307.47;5092013;28;20535;-74
2023/08/20 04:23:43;;;;;;;21.23;19.63;;;;;;;21.43;88.55;98303.19;5091911;28;20458;-74
2023/08/20 04:26:09;;;;;;;19.87;18.30;;;;;;;21.25;89.50;98300.84;5092075;28;20446;-74
2023/08/20 04:28:36;;;;;;;19.97;18.47;;;;;;;21.22;89.66;98312.38;5092167;28;20530;-75
2023/08/20 04:31:03;;;;;;;18.73;17.33;;;;;;;21.21;89.88;98307.97;5091976;28;20475;-74
2023/08/20 04:33:30;;;;;;;20.53;18.90;;;;;;;21.18;90.30;98310.38;5091373;28;20449;-74
2023/08/20 04:35:56;;;;;;;20.87;19.27;;;;;;;21.52;88.51;98316.44;5091638;28;20436;-74
2023/08/20 04:38:25;;;;;;;20.00;18.60;;;;;;;21.52;88.25;98322.75;5091787;28;20568;-74
2023/08/20 04:40:52;;;;;;;18.07;16.80;;;;;;;21.51;88.22;98320.28;5091657;28;20445;-74
2023/08/20 04:43:18;;;;;;;18.37;16.87;;;;;;;21.36;88.90;98319.09;5091649;28;20446;-74
2023/08/20 04:45:45;;;;;;;18.77;17.37;;;;;;;21.33;88.86;98325.13;5091706;28;20441;-74
2023/08/20 04:48:12;;;;;;;17.43;16.33;;;;;;;21.57;87.96;98324.72;5091729;28;20481;-74
2023/08/20 04:50:39;;;;;;;19.63;18.27;;;;;;;21.80;87.04;98321.53;5091799;28;20541;-74
2023/08/20 04:53:06;;;;;;;19.93;18.30;;;;;;;21.74;87.07;98331.72;5091614;28;20466;-74
2023/08/20 04:55:34;;;;;;;21.20;19.40;;;;;;;21.52;87.68;98331.03;5090791;28;20460;-74
2023/08/20 04:58:01;;;;;;;19.20;17.60;;;;;;;21.63;87.31;98334.69;5091626;28;20465;-74
2023/08/20 05:00:28;;;;;;;19.90;18.20;;;;;;;21.70;87.53;98338.03;5091312;28;20485;-74
2023/08/20 05:02:55;;;;;;;21.60;20.00;;;;;;;21.74;86.88;98336.41;5091443;28;20452;-74
2023/08/20 05:05:22;;;;;;;21.07;19.57;;;;;;;21.67;87.14;98336.66;5091216;28;20449;-74
2023/08/20 05:07:49;;;;;;;21.90;20.30;;;;;;;21.78;86.66;98340.25;5091201;28;20666;-75
2023/08/20 05:10:16;;;;;;;20.90;19.47;;;;;;;21.72;87.44;98344.94;5090710;28;20475;-74
2023/08/20 05:12:44;;;;;;;22.90;21.20;;;;;;;21.55;87.61;98333.25;5091395;28;20786;-73
2023/08/20 05:15:11;;;;;;;21.67;20.07;;;;;;;21.50;88.52;98329.63;5090782;28;20509;-75
2023/08/20 05:17:39;;;;;;;22.57;20.97;;;;;;;21.48;88.48;98332.66;5090801;28;20445;-74
2023/08/20 05:20:08;;;;;;;21.57;19.73;;;;;;;21.44;88.76;98326.84;5090900;28;20497;-73
2023/08/20 05:22:35;;;;;;;21.67;20.07;;;;;;;21.43;88.55;98325.22;5090939;28;21186;-74
2023/08/20 05:25:02;;;;;;;20.37;18.70;;;;;;;21.37;88.42;98331.78;5090632;28;20456;-74
2023/08/20 05:27:29;;;;;;;19.93;18.50;;;;;;;21.50;88.06;98337.91;5091076;28;20430;-75
2023/08/20 05:29:57;;;;;;;18.60;17.30;;;;;;;21.65;87.17;98338.00;5090631;28;20473;-74
2023/08/20 05:32:23;;;;;;;19.43;17.90;;;;;;;21.64;87.16;98337.19;5090964;28;20538;-74
2023/08/20 05:34:50;;;;;;;21.23;19.63;;;;;;;21.41;88.18;98340.34;5090629;28;20441;-74
2023/08/20 05:37:17;;;;;;;20.30;18.60;;;;;;;21.42;87.69;98334.56;5090370;28;20932;-74
2023/08/20 05:39:44;;;;;;;21.10;19.40;;;;;;;21.48;87.82;98327.13;5090633;28;20484;-74
2023/08/20 05:42:11;;;;;;;18.63;17.10;;;;;;;21.55;87.78;98338.75;5090606;28;20479;-74
2023/08/20 05:44:38;;;;;;;19.37;17.80;;;;;;;21.67;87.04;98341.31;5090505;28;20445;-74
2023/08/20 05:47:06;;;;;;;19.00;17.60;;;;;;;21.57;86.63;98339.31;5090873;28;20455;-74
2023/08/20 05:49:33;;;;;;;18.07;16.70;;;;;;;21.70;86.92;98351.81;5090220;28;20467;-74
2023/08/20 05:52:00;;;;;;;18.57;17.10;;;;;;;21.83;86.46;98359.59;5090248;28;20449;-74
2023/08/20 05:54:27;;;;;;;19.67;17.93;;;;;;;21.81;85.99;98361.78;5090311;28;20473;-74
2023/08/20 05:56:54;;;;;;;19.87;18.37;;;;;;;21.85;86.04;98354.66;5090589;28;20502;-74
2023/08/20 05:59:20;;;;;;;18.33;16.93;;;;;;;21.84;86.53;98343.88;5090148;28;20481;-73
2023/08/20 06:01:47;;;;;;;19.03;17.60;;;;;;;21.85;86.10;98343.63;5089631;28;20453;-75
2023/08/20 06:04:15;;;;;;;18.50;17.20;;;;;;;21.96;85.61;98359.13;5089982;28;20532;-74
2023/08/20 06:06:42;;;;;;;18.20;16.83;;;;;;;22.39;83.79;98355.22;5090440;28;20477;-74
2023/08/20 06:09:09;;;;;;;18.53;17.23;;;;;;;22.53;82.95;98363.78;5089844;28;20473;-75
2023/08/20 06:11:36;;;;;;;18.40;16.97;;;;;;;22.66;81.97;98362.47;5090164;28;20524;-74
2023/08/20 06:14:03;;;;;;;17.33;15.93;;;;;;;22.94;80.71;98374.97;5089781;28;20543;-75
2023/08/20 06:16:30;;;;;;;15.60;14.40;;;;;;;23.29;79.88;98377.75;5090029;28;21061;-74
2023/08/20 06:18:58;;;;;;;16.07;14.67;;;;;;;23.45;79.19;98373.84;5089632;28;20532;-75
2023/08/20 06:21:26;;;;;;;14.77;13.77;;;;;;;23.68;78.35;98380.81;5090155;28;20477;-74
2023/08/20 06:23:53;;;;;;;14.20;13.10;;;;;;;24.01;76.72;98373.81;5089607;28;20830;-75
2023/08/20 06:26:20;;;;;;;14.73;13.43;;;;;;;24.13;76.19;98379.84;5089905;28;20532;-75
2023/08/20 06:28:47;;;;;;;15.37;14.27;;;;;;;24.45;75.27;98384.19;5089636;28;20480;-75
2023/08/20 06:31:14;;;;;;;13.70;12.80;;;;;;;24.93;73.38;98381.72;5089745;28;20530;-74
2023/08/20 06:33:41;;;;;;;16.17;14.77;;;;;;;25.10;72.49;98376.63;5089136;28;20475;-74
2023/08/20 06:36:07;;;;;;;15.60;14.57;;;;;;;25.31;71.77;98378.13;5089585;28;20863;-75
2023/08/20 06:38:35;;;;;;;15.57;14.30;;;;;;;25.59;70.41;98386.78;5089470;28;20469;-75
2023/08/20 06:41:02;;;;;;;14.10;13.20;;;;;;;25.62;70.74;98377.88;5089744;28;20452;-75
2023/08/20 06:43:29;;;;;;;15.30;14.07;;;;;;;26.76;66.08;98367.69;5089132;28;20453;-74
2023/08/20 06:45:56;;;;;;;16.53;15.03;;;;;;;26.74;66.00;98372.72;5089083;28;20949;-75
2023/08/20 06:48:24;;;;;;;14.60;13.50;;;;;;;27.37;64.42;98380.66;5089668;28;20469;-74
2023/08/20 06:50:51;;;;;;;12.70;11.90;;;;;;;27.43;63.80;98379.47;5089289;28;20445;-75
2023/08/20 06:53:18;;;;;;;14.17;13.17;;;;;;;26.81;65.97;98375.13;5089528;28;20449;-75
2023/08/20 06:55:46;;;;;;;13.13;12.23;;;;;;;26.80;66.17;98367.91;5089014;28;20523;-75
2023/08/20 06:58:12;;;;;;;11.77;10.87;;;;;;;27.67;63.26;98375.75;5088990;28;21025;-75
2023/08/20 07:00:39;;;;;;;12.43;11.47;;;;;;;28.50;59.78;98385.03;5088581;28;20568;-75
2023/08/20 07:03:06;;;;;;;12.93;11.80;;;;;;;29.20;57.13;98385.44;5089599;28;20485;-75
2023/08/20 07:05:33;;;;;;;11.17;10.27;;;;;;;28.97;58.09;98386.53;5088934;28;21030;-75
2023/08/20 07:07:59;;;;;;;11.00;10.13;;;;;;;28.77;58.51;98382.22;5089328;28;20460;-75
2023/08/20 07:10:26;;;;;;;12.10;11.30;;;;;;;29.21;56.97;98384.31;5089489;28;20531;-75
2023/08/20 07:12:54;;;;;;;11.97;11.00;;;;;;;29.54;55.41;98387.69;5090687;28;20477;-75
2023/08/20 07:15:21;;;;;;;12.50;11.50;;;;;;;30.27;53.30;98388.28;5093103;28;20495;-75
2023/08/20 07:17:48;;;;;;;11.63;10.83;;;;;;;30.00;54.00;98390.13;5093207;28;20532;-75
2023/08/20 07:20:15;;;;;;;12.43;11.47;;;;;;;30.11;53.61;98399.06;5093401;28;20493;-75
2023/08/20 07:22:42;;;;;;;11.10;10.40;;;;;;;30.28;53.46;98398.31;5093513;28;20533;-75
2023/08/20 07:25:09;;;;;;;12.17;11.37;;;;;;;30.21;53.53;98407.16;5092858;28;20479;-75
2023/08/20 07:27:36;;;;;;;11.67;10.90;;;;;;;30.52;52.74;98407.13;5093386;28;20452;-75
2023/08/20 07:30:04;;;;;;;12.33;11.53;;;;;;;30.05;53.64;98403.97;5093515;28;20844;-75
2023/08/20 07:32:31;;;;;;;11.80;10.90;;;;;;;29.86;54.42;98411.72;5093361;28;20445;-75
2023/08/20 07:34:58;;;;;;;12.50;11.53;;;;;;;29.52;55.17;98412.31;5092509;28;20462;-75
2023/08/20 07:37:25;;;;;;;12.50;11.50;;;;;;;29.05;56.71;98417.28;5093286;28;20463;-75
2023/08/20 07:39:52;;;;;;;11.70;10.83;;;;;;;28.78;57.66;98428.44;5092451;28;20487;-75
2023/08/20 07:42:19;;;;;;;11.90;10.97;;;;;;;28.81;57.96;98410.28;5093105;28;20477;-75
2023/08/20 07:44:45;;;;;;;12.77;11.73;;;;;;;29.55;55.85;98417.25;5093001;28;20475;-75
2023/08/20 07:47:14;;;;;;;11.40;10.50;;;;;;;29.90;54.56;98423.88;5092756;28;20457;-75
2023/08/20 07:49:40;;;;;;;11.07;10.30;;;;;;;30.14;53.98;98429.16;5092531;28;20552;-75
2023/08/20 07:52:07;;;;;;;10.83;10.13;;;;;;;30.01;54.13;98430.03;5092510;28;20495;-75
2023/08/20 07:54:34;;;;;;;11.63;10.83;;;;;;;29.53;55.52;98416.75;5092346;28;20924;-75
2023/08/20 07:57:00;;;;;;;11.67;10.87;;;;;;;29.56;55.80;98426.44;5092584;28;20498;-75
2023/08/20 07:59:27;;;;;;;12.40;11.50;;;;;;;29.53;55.99;98430.69;5092591;28;20488;-75
2023/08/20 08:01:54;;;;;;;12.50;11.60;;;;;;;29.55;55.99;98434.00;5092824;28;20453;-75
2023/08/20 08:04:22;;;;;;;11.43;10.50;;;;;;;29.34;56.33;98428.03;5092403;28;20437;-75
2023/08/20 08:06:49;;;;;;;12.50;11.30;;;;;;;28.99;56.81;98429.69;5092200;28;20907;-75
2023/08/20 08:09:20;;;;;;;12.93;11.90;;;;;;;28.80;58.17;98417.00;5092278;28;20489;-73
2023/08/20 08:11:46;;;;;;;11.07;10.17;;;;;;;29.51;56.45;98429.34;5092771;28;20524;-73
2023/08/20 08:14:13;;;;;;;11.17;10.37;;;;;;;30.77;52.73;98432.72;5091912;28;20492;-73
2023/08/20 08:16:40;;;;;;;12.07;11.17;;;;;;;32.16;48.88;98438.03;5092459;28;20532;-73
2023/08/20 08:19:07;;;;;;;10.77;9.90;;;;;;;32.34;47.44;98434.03;5092254;28;21062;-73
2023/08/20 08:21:35;;;;;;;11.20;10.50;;;;;;;32.31;47.66;98429.09;5092164;28;20805;-73
2023/08/20 08:24:02;;;;;;;11.20;10.30;;;;;;;32.51;47.62;98427.53;5091230;28;20469;-73
2023/08/20 08:26:29;;;;;;;11.13;10.27;;;;;;;32.59;47.12;98435.06;5092058;28;20475;-73
2023/08/20 08:28:56;;;;;;;10.10;9.40;;;;;;;33.27;44.98;98435.88;5092333;28;20560;-73
2023/08/20 08:31:24;;;;;;;11.13;10.00;;;;;;;33.47;44.46;98437.03;5091928;28;20856;-73
2023/08/20 08:33:50;;;;;;;10.57;9.87;;;;;;;33.98;43.50;98430.16;5090991;28;20444;-73
2023/08/20 08:36:17;;;;;;;10.70;9.80;;;;;;;33.86;43.19;98438.53;5092010;28;20453;-73
2023/08/20 08:38:46;;;;;;;10.50;9.70;;;;;;;33.32;44.00;98432.88;5092090;28;20472;-73
2023/08/20 08:41:13;;;;;;;8.90;8.30;;;;;;;34.13;42.05;98431.47;5091643;28;20516;-73
2023/08/20 08:43:41;;;;;;;9.20;8.60;;;;;;;34.27;42.14;98439.59;5091642;28;20457;-73
2023/08/20 08:46:09;;;;;;;10.17;9.27;;;;;;;34.62;40.74;98435.22;5091638;28;20532;-73
2023/08/20 08:48:37;;;;;;;11.87;10.77;;;;;;;34.06;41.76;98436.03;5091811;28;20517;-74
2023/08/20 08:51:03;;;;;;;9.57;8.80;;;;;;;34.56;41.13;98433.78;5091430;28;20593;-74
2023/08/20 08:53:31;;;;;;;10.63;9.83;;;;;;;34.79;41.26;98441.75;5091414;28;20477;-74
2023/08/20 08:56:00;;;;;;;10.33;9.43;;;;;;;34.21;42.22;98435.34;5091683;28;20445;-74
2023/08/20 08:58:26;;;;;;;9.47;8.77;;;;;;;33.98;42.93;98435.75;5091201;28;20543;-73
2023/08/20 09:00:53;;;;;;;9.90;9.20;;;;;;;34.03;42.82;98432.75;5091391;28;20993;-74
2023/08/20 09:03:20;;;;;;;11.10;10.10;;;;;;;34.82;40.40;98435.47;5091021;28;20474;-73
2023/08/20 09:05:48;;;;;;;10.77;9.87;;;;;;;35.24;39.61;98439.63;5091324;28;20945;-74
2023/08/20 09:08:21;;;;;;;8.90;8.20;;;;;;;35.28;39.66;98437.75;5090915;28;21599;-74
2023/08/20 09:10:51;;;;;;;10.33;9.57;;;;;;;35.60;38.85;98437.94;5091163;28;20461;-74
2023/08/20 09:13:23;;;;;;;10.20;9.40;;;;;;;35.99;37.65;98430.63;5090923;28;20794;-74
2023/08/20 09:15:51;;;;;;;8.90;8.30;;;;;;;36.21;37.33;98434.84;5090681;28;20447;-74
2023/08/20 09:18:18;;;;;;;9.03;8.20;;;;;;;36.19;36.93;98437.22;5091214;28;20580;-73
2023/08/20 09:20:45;;;;;;;8.87;8.27;;;;;;;35.99;36.81;98437.09;5091106;28;20484;-73
2023/08/20 09:23:12;;;;;;;9.50;8.60;;;;;;;35.70;37.69;98437.44;5090891;28;20473;-73
2023/08/20 09:25:39;;;;;;;9.63;8.93;;;;;;;35.30;38.85;98438.25;5090797;28;20453;-74
2023/08/20 09:28:07;;;;;;;8.10;7.50;;;;;;;35.94;37.14;98434.53;5090794;28;20534;-74
2023/08/20 09:30:35;;;;;;;8.33;7.80;;;;;;;35.64;38.02;98434.03;5090748;28;20553;-74
2023/08/20 09:33:06;;;;;;;7.70;7.30;;;;;;;35.93;36.82;98434.88;5090502;28;20449;-74
2023/08/20 09:35:33;;;;;;;7.60;7.10;;;;;;;36.46;35.80;98429.88;5089505;28;20538;-73
2023/08/20 09:38:00;;;;;;;8.40;7.80;;;;;;;36.92;35.18;98431.09;5090686;28;20469;-74
2023/08/20 09:40:28;;;;;;;9.17;8.50;;;;;;;37.23;34.96;98428.22;5090882;28;20620;-74
2023/08/20 09:42:55;;;;;;;8.50;8.00;;;;;;;37.38;34.35;98431.34;5090419;28;20541;-73
2023/08/20 09:45:22;;;;;;;9.10;8.50;;;;;;;37.13;34.80;98431.56;5090519;28;20855;-74
2023/08/20 09:47:55;;;;;;;9.07;8.17;;;;;;;37.45;33.62;98437.16;5090215;28;20544;-74
2023/08/20 09:50:22;;;;;;;9.60;8.90;;;;;;;36.60;35.06;98442.38;5090599;28;20518;-74
2023/08/20 09:52:56;;;;;;;8.80;8.10;;;;;;;37.04;34.63;98433.78;5090260;28;20497;-74
2023/08/20 09:55:27;;;;;;;7.83;7.30;;;;;;;36.91;33.58;98429.44;5090282;28;20491;-74
2023/08/20 09:57:54;;;;;;;6.90;6.50;;;;;;;36.76;34.18;98430.28;5090275;28;20987;-74
2023/08/20 10:00:22;;;;;;;7.40;6.70;;;;;;;37.49;33.21;98429.56;5090293;28;20586;-74
2023/08/20 10:02:50;;;;;;;7.27;6.67;;;;;;;37.68;32.42;98423.97;5090599;28;20471;-74
2023/08/20 10:05:17;;;;;;;7.17;6.57;;;;;;;38.55;30.11;98423.22;5090055;28;20536;-74
2023/08/20 10:07:44;;;;;;;7.87;7.27;;;;;;;38.30;31.93;98427.66;5090201;28;20495;-75
2023/08/20 10:10:11;;;;;;;8.50;7.90;;;;;;;39.12;31.34;98429.03;5089631;28;20445;-75
2023/08/20 10:12:39;;;;;;;7.47;6.97;;;;;;;39.11;30.61;98428.22;5090381;28;20487;-75
2023/08/20 10:15:09;;;;;;;9.33;8.57;;;;;;;38.12;32.19;98418.00;5089689;28;20461;-74
2023/08/20 10:17:36;;;;;;;8.80;8.20;;;;;;;37.57;33.34;98411.59;5090159;28;20469;-75
2023/08/20 10:20:06;;;;;;;7.93;7.43;;;;;;;38.02;31.99;98421.41;5089800;28;20483;-75
2023/08/20 10:22:37;;;;;;;7.33;6.83;;;;;;;38.45;31.00;98418.19;5089894;28;20571;-75
2023/08/20 10:25:07;;;;;;;6.90;6.40;;;;;;;37.68;31.43;98423.16;5089719;28;20445;-75
2023/08/20 10:27:35;;;;;;;7.47;6.90;;;;;;;37.70;31.03;98430.06;5089829;28;20860;-75
2023/08/20 10:30:03;;;;;;;6.83;6.43;;;;;;;38.27;30.43;98428.41;5089624;28;20567;-75
2023/08/20 10:32:46;;;;;;;6.60;6.17;;;;;;;38.39;29.71;98425.34;5089829;28;20469;-76
2023/08/20 10:35:14;;;;;;;6.77;6.37;;;;;;;38.35;30.77;98423.66;5089389;28;20437;-75
2023/08/20 10:38:01;;;;;;;7.40;6.80;;;;;;;38.39;30.37;98431.03;5089535;28;20867;-75
2023/08/20 10:40:52;;;;;;;6.80;6.30;;;;;;;38.55;30.56;98428.91;5089138;28;20512;-75
2023/08/20 10:43:28;;;;;;;7.57;6.87;;;;;;;38.51;29.37;98422.34;5089163;28;20430;-75
2023/08/20 10:46:05;;;;;;;6.20;5.70;;;;;;;38.45;29.20;98423.03;5089324;28;20467;-75
2023/08/20 10:48:33;;;;;;;6.70;6.27;;;;;;;38.21;30.35;98427.06;5089476;28;20544;-75
2023/08/20 10:51:07;;;;;;;6.40;6.00;;;;;;;38.50;29.85;98417.88;5089895;28;20514;-75
2023/08/20 10:53:34;;;;;;;6.60;6.10;;;;;;;38.92;29.24;98419.81;5089408;28;20433;-75
2023/08/20 10:56:10;;;;;;;7.40;6.70;;;;;;;39.37;28.17;98418.06;5089237;28;20536;-75
2023/08/20 10:58:39;;;;;;;6.60;6.13;;;;;;;39.43;28.36;98423.00;5089183;28;20456;-75
2023/08/20 11:01:22;;;;;;;7.47;6.97;;;;;;;38.56;29.70;98416.38;5089441;28;20576;-75
2023/08/20 11:03:50;;;;;;;7.53;7.00;;;;;;;38.33;29.30;98417.59;5088740;28;20962;-75
2023/08/20 11:06:18;;;;;;;6.43;6.03;;;;;;;37.56;30.78;98412.78;5089163;28;20536;-75
2023/08/20 11:08:45;;;;;;;6.77;6.37;;;;;;;37.96;31.03;98404.75;5089515;28;20473;-75
2023/08/20 11:11:13;;;;;;;7.50;7.00;;;;;;;38.70;29.94;98404.50;5089273;28;20442;-75
2023/08/20 11:13:42;;;;;;;7.00;6.50;;;;;;;39.10;28.75;98403.13;5088749;28;20794;-75
2023/08/20 11:16:09;;;;;;;7.10;6.60;;;;;;;38.24;29.54;98407.31;5089369;28;20437;-76
2023/08/20 11:18:36;;;;;;;7.10;6.60;;;;;;;38.44;30.30;98408.06;5089249;28;20492;-76
2023/08/20 11:21:03;;;;;;;7.10;6.70;;;;;;;37.72;31.03;98399.41;5088726;28;20741;-76
2023/08/20 11:23:30;;;;;;;6.87;6.37;;;;;;;38.23;30.13;98394.38;5089093;28;20449;-76
2023/08/20 11:25:57;;;;;;;6.60;6.13;;;;;;;37.43;30.52;98397.16;5089270;28;20960;-75